sensor_id;sensor_type;location;lat;lon;timestamp;P1;durP1;ratioP1;P2;durP2;ratioP2
4724;SDS011;2376;53.544;10.226;2023-02-22T00:00:32;17.33;;;4.53;;
4724;SDS011;2376;53.544;10.226;2023-02-22T00:03:07;14.90;;;4.40;;
4724;SDS011;2376;53.544;10.226;2023-02-22T00:05:36;17.80;;;4.60;;
4724;SDS011;2376;53.544;10.226;2023-02-22T00:08:04;11.43;;;5.07;;
4724;SDS011;2376;53.544;10.226;2023-02-22T00:10:33;14.63;;;5.33;;
4724;SDS011;2376;53.544;10.226;2023-02-22T00:13:04;15.97;;;5.13;;
4724;SDS011;2376;53.544;10.226;2023-02-22T00:15:32;8.97;;;3.67;;
4724;SDS011;2376;53.544;10.226;2023-02-22T00:17:59;8.90;;;3.90;;
4724;SDS011;2376;53.544;10.226;2023-02-22T00:20:26;7.70;;;3.70;;
4724;SDS011;2376;53.544;10.226;2023-02-22T00:22:53;13.20;;;4.07;;
4724;SDS011;2376;53.544;10.226;2023-02-22T00:25:21;10.93;;;4.50;;
4724;SDS011;2376;53.544;10.226;2023-02-22T00:27:50;9.07;;;3.50;;
4724;SDS011;2376;53.544;10.226;2023-02-22T00:30:20;9.97;;;4.27;;
4724;SDS011;2376;53.544;10.226;2023-02-22T00:32:49;15.90;;;6.20;;
4724;SDS011;2376;53.544;10.226;2023-02-22T00:35:17;13.37;;;5.67;;
4724;SDS011;2376;53.544;10.226;2023-02-22T00:37:46;13.13;;;4.77;;
4724;SDS011;2376;53.544;10.226;2023-02-22T00:40:14;13.17;;;5.50;;
4724;SDS011;2376;53.544;10.226;2023-02-22T00:42:42;9.07;;;5.77;;
4724;SDS011;2376;53.544;10.226;2023-02-22T00:45:10;14.83;;;5.07;;
4724;SDS011;2376;53.544;10.226;2023-02-22T00:47:39;10.97;;;4.90;;
4724;SDS011;2376;53.544;10.226;2023-02-22T00:50:06;13.77;;;4.77;;
4724;SDS011;2376;53.544;10.226;2023-02-22T00:52:34;12.53;;;5.03;;
4724;SDS011;2376;53.544;10.226;2023-02-22T00:55:01;10.87;;;4.87;;
4724;SDS011;2376;53.544;10.226;2023-02-22T00:57:30;10.97;;;4.93;;
4724;SDS011;2376;53.544;10.226;2023-02-22T00:59:59;16.97;;;4.90;;
4724;SDS011;2376;53.544;10.226;2023-02-22T01:02:35;11.37;;;5.57;;
4724;SDS011;2376;53.544;10.226;2023-02-22T01:05:04;8.20;;;5.37;;
4724;SDS011;2376;53.544;10.226;2023-02-22T01:07:31;17.53;;;5.60;;
4724;SDS011;2376;53.544;10.226;2023-02-22T01:09:58;9.60;;;5.20;;
4724;SDS011;2376;53.544;10.226;2023-02-22T01:12:26;11.90;;;6.13;;
4724;SDS011;2376;53.544;10.226;2023-02-22T01:14:53;12.00;;;5.43;;
4724;SDS011;2376;53.544;10.226;2023-02-22T01:17:22;9.70;;;4.50;;
4724;SDS011;2376;53.544;10.226;2023-02-22T01:19:49;9.93;;;5.20;;
4724;SDS011;2376;53.544;10.226;2023-02-22T01:22:18;10.97;;;4.87;;
4724;SDS011;2376;53.544;10.226;2023-02-22T01:24:45;9.53;;;5.37;;
4724;SDS011;2376;53.544;10.226;2023-02-22T01:27:12;10.60;;;5.77;;
4724;SDS011;2376;53.544;10.226;2023-02-22T01:29:40;13.57;;;6.10;;
4724;SDS011;2376;53.544;10.226;2023-02-22T01:32:07;12.70;;;6.20;;
4724;SDS011;2376;53.544;10.226;2023-02-22T01:34:36;14.87;;;6.10;;
4724;SDS011;2376;53.544;10.226;2023-02-22T01:37:03;11.30;;;5.40;;
4724;SDS011;2376;53.544;10.226;2023-02-22T01:39:32;12.83;;;5.23;;
4724;SDS011;2376;53.544;10.226;2023-02-22T01:41:59;14.20;;;5.93;;
4724;SDS011;2376;53.544;10.226;2023-02-22T01:44:28;9.73;;;5.30;;
4724;SDS011;2376;53.544;10.226;2023-02-22T01:46:56;11.60;;;6.60;;
4724;SDS011;2376;53.544;10.226;2023-02-22T01:49:25;18.67;;;7.30;;
4724;SDS011;2376;53.544;10.226;2023-02-22T01:51:56;13.00;;;6.80;;
4724;SDS011;2376;53.544;10.226;2023-02-22T01:54:26;24.67;;;7.50;;
4724;SDS011;2376;53.544;10.226;2023-02-22T01:56:58;21.43;;;7.90;;
4724;SDS011;2376;53.544;10.226;2023-02-22T01:59:30;11.30;;;6.57;;
4724;SDS011;2376;53.544;10.226;2023-02-22T02:01:59;19.60;;;6.80;;
4724;SDS011;2376;53.544;10.226;2023-02-22T02:04:28;12.30;;;6.70;;
4724;SDS011;2376;53.544;10.226;2023-02-22T02:06:58;6.97;;;5.70;;
4724;SDS011;2376;53.544;10.226;2023-02-22T02:09:29;15.83;;;6.47;;
4724;SDS011;2376;53.544;10.226;2023-02-22T02:12:02;13.30;;;6.10;;
4724;SDS011;2376;53.544;10.226;2023-02-22T02:14:30;12.10;;;5.23;;
4724;SDS011;2376;53.544;10.226;2023-02-22T02:16:57;12.87;;;6.47;;
4724;SDS011;2376;53.544;10.226;2023-02-22T02:19:27;11.07;;;5.13;;
4724;SDS011;2376;53.544;10.226;2023-02-22T02:22:18;16.70;;;6.60;;
4724;SDS011;2376;53.544;10.226;2023-02-22T02:28:03;14.50;;;5.23;;
4724;SDS011;2376;53.544;10.226;2023-02-22T02:30:49;9.37;;;5.70;;
4724;SDS011;2376;53.544;10.226;2023-02-22T02:33:39;15.70;;;5.00;;
4724;SDS011;2376;53.544;10.226;2023-02-22T02:36:12;13.30;;;5.40;;
4724;SDS011;2376;53.544;10.226;2023-02-22T02:38:45;11.03;;;6.23;;
4724;SDS011;2376;53.544;10.226;2023-02-22T02:41:19;16.30;;;6.00;;
4724;SDS011;2376;53.544;10.226;2023-02-22T02:43:52;9.87;;;5.53;;
4724;SDS011;2376;53.544;10.226;2023-02-22T02:46:25;13.10;;;5.20;;
4724;SDS011;2376;53.544;10.226;2023-02-22T02:48:59;9.07;;;5.63;;
4724;SDS011;2376;53.544;10.226;2023-02-22T02:51:29;12.50;;;6.03;;
4724;SDS011;2376;53.544;10.226;2023-02-22T02:54:01;9.13;;;5.13;;
4724;SDS011;2376;53.544;10.226;2023-02-22T02:56:29;16.43;;;5.70;;
4724;SDS011;2376;53.544;10.226;2023-02-22T02:58:56;7.80;;;5.73;;
4724;SDS011;2376;53.544;10.226;2023-02-22T03:01:29;9.47;;;4.87;;
4724;SDS011;2376;53.544;10.226;2023-02-22T03:04:16;13.07;;;6.87;;
4724;SDS011;2376;53.544;10.226;2023-02-22T03:06:58;10.70;;;6.30;;
4724;SDS011;2376;53.544;10.226;2023-02-22T03:09:37;11.90;;;5.70;;
4724;SDS011;2376;53.544;10.226;2023-02-22T03:12:15;12.07;;;6.57;;
4724;SDS011;2376;53.544;10.226;2023-02-22T03:14:58;19.93;;;7.13;;
4724;SDS011;2376;53.544;10.226;2023-02-22T03:17:36;9.87;;;6.10;;
4724;SDS011;2376;53.544;10.226;2023-02-22T03:20:11;9.03;;;6.00;;
4724;SDS011;2376;53.544;10.226;2023-02-22T03:22:47;11.00;;;6.27;;
4724;SDS011;2376;53.544;10.226;2023-02-22T03:25:20;10.40;;;6.07;;
4724;SDS011;2376;53.544;10.226;2023-02-22T03:27:51;9.37;;;6.13;;
4724;SDS011;2376;53.544;10.226;2023-02-22T03:30:21;17.90;;;7.13;;
4724;SDS011;2376;53.544;10.226;2023-02-22T03:32:51;13.43;;;6.67;;
4724;SDS011;2376;53.544;10.226;2023-02-22T03:35:24;16.53;;;6.83;;
4724;SDS011;2376;53.544;10.226;2023-02-22T03:37:55;13.90;;;6.93;;
4724;SDS011;2376;53.544;10.226;2023-02-22T03:40:25;9.10;;;6.07;;
4724;SDS011;2376;53.544;10.226;2023-02-22T03:42:57;13.30;;;6.23;;
4724;SDS011;2376;53.544;10.226;2023-02-22T03:45:28;13.10;;;6.60;;
4724;SDS011;2376;53.544;10.226;2023-02-22T03:47:58;10.63;;;6.27;;
4724;SDS011;2376;53.544;10.226;2023-02-22T03:50:32;9.90;;;6.13;;
4724;SDS011;2376;53.544;10.226;2023-02-22T03:53:00;13.17;;;6.47;;
4724;SDS011;2376;53.544;10.226;2023-02-22T03:55:27;13.10;;;6.57;;
4724;SDS011;2376;53.544;10.226;2023-02-22T03:57:55;9.73;;;6.37;;
4724;SDS011;2376;53.544;10.226;2023-02-22T04:00:25;11.80;;;6.40;;
4724;SDS011;2376;53.544;10.226;2023-02-22T04:02:54;10.80;;;6.90;;
4724;SDS011;2376;53.544;10.226;2023-02-22T04:05:21;11.40;;;6.80;;
4724;SDS011;2376;53.544;10.226;2023-02-22T04:07:50;11.57;;;7.20;;
4724;SDS011;2376;53.544;10.226;2023-02-22T04:10:17;15.10;;;6.27;;
4724;SDS011;2376;53.544;10.226;2023-02-22T04:12:44;14.47;;;7.10;;
4724;SDS011;2376;53.544;10.226;2023-02-22T04:15:12;13.00;;;6.77;;
4724;SDS011;2376;53.544;10.226;2023-02-22T04:17:41;13.30;;;6.03;;
4724;SDS011;2376;53.544;10.226;2023-02-22T04:20:08;19.77;;;6.97;;
4724;SDS011;2376;53.544;10.226;2023-02-22T04:22:37;11.70;;;7.03;;
4724;SDS011;2376;53.544;10.226;2023-02-22T04:25:06;12.60;;;5.57;;
4724;SDS011;2376;53.544;10.226;2023-02-22T04:27:33;11.67;;;6.40;;
4724;SDS011;2376;53.544;10.226;2023-02-22T04:30:00;14.53;;;6.47;;
4724;SDS011;2376;53.544;10.226;2023-02-22T04:32:27;8.10;;;5.67;;
4724;SDS011;2376;53.544;10.226;2023-02-22T04:34:53;10.20;;;5.13;;
4724;SDS011;2376;53.544;10.226;2023-02-22T04:37:20;8.40;;;5.60;;
4724;SDS011;2376;53.544;10.226;2023-02-22T04:39:47;11.33;;;6.50;;
4724;SDS011;2376;53.544;10.226;2023-02-22T04:42:15;9.33;;;5.57;;
4724;SDS011;2376;53.544;10.226;2023-02-22T04:44:42;13.00;;;5.80;;
4724;SDS011;2376;53.544;10.226;2023-02-22T04:47:09;9.57;;;5.90;;
4724;SDS011;2376;53.544;10.226;2023-02-22T04:49:36;11.23;;;6.10;;
4724;SDS011;2376;53.544;10.226;2023-02-22T04:52:03;9.30;;;6.10;;
4724;SDS011;2376;53.544;10.226;2023-02-22T04:54:29;9.03;;;5.90;;
4724;SDS011;2376;53.544;10.226;2023-02-22T04:56:56;13.27;;;7.00;;
4724;SDS011;2376;53.544;10.226;2023-02-22T04:59:24;7.60;;;5.70;;
4724;SDS011;2376;53.544;10.226;2023-02-22T05:01:51;8.77;;;6.63;;
4724;SDS011;2376;53.544;10.226;2023-02-22T05:04:18;14.27;;;6.23;;
4724;SDS011;2376;53.544;10.226;2023-02-22T05:06:45;15.10;;;7.20;;
4724;SDS011;2376;53.544;10.226;2023-02-22T05:09:13;13.27;;;6.90;;
4724;SDS011;2376;53.544;10.226;2023-02-22T05:11:39;13.93;;;7.40;;
4724;SDS011;2376;53.544;10.226;2023-02-22T05:14:06;9.00;;;6.80;;
4724;SDS011;2376;53.544;10.226;2023-02-22T05:16:34;16.13;;;7.90;;
4724;SDS011;2376;53.544;10.226;2023-02-22T05:19:01;9.53;;;6.70;;
4724;SDS011;2376;53.544;10.226;2023-02-22T05:21:28;15.43;;;7.63;;
4724;SDS011;2376;53.544;10.226;2023-02-22T05:23:55;12.47;;;8.07;;
4724;SDS011;2376;53.544;10.226;2023-02-22T05:26:22;13.93;;;8.70;;
4724;SDS011;2376;53.544;10.226;2023-02-22T05:28:49;19.07;;;9.10;;
4724;SDS011;2376;53.544;10.226;2023-02-22T05:31:16;21.77;;;10.10;;
4724;SDS011;2376;53.544;10.226;2023-02-22T05:33:44;19.90;;;9.80;;
4724;SDS011;2376;53.544;10.226;2023-02-22T05:36:11;20.80;;;9.23;;
4724;SDS011;2376;53.544;10.226;2023-02-22T05:38:38;18.67;;;10.13;;
4724;SDS011;2376;53.544;10.226;2023-02-22T05:41:07;17.90;;;10.33;;
4724;SDS011;2376;53.544;10.226;2023-02-22T05:43:34;16.87;;;9.73;;
4724;SDS011;2376;53.544;10.226;2023-02-22T05:46:01;15.17;;;9.80;;
4724;SDS011;2376;53.544;10.226;2023-02-22T05:48:28;13.70;;;10.30;;
4724;SDS011;2376;53.544;10.226;2023-02-22T05:50:57;25.17;;;11.63;;
4724;SDS011;2376;53.544;10.226;2023-02-22T05:53:24;19.40;;;10.53;;
4724;SDS011;2376;53.544;10.226;2023-02-22T05:55:51;21.00;;;12.40;;
4724;SDS011;2376;53.544;10.226;2023-02-22T05:58:18;25.90;;;12.07;;
4724;SDS011;2376;53.544;10.226;2023-02-22T06:00:45;16.07;;;10.50;;
4724;SDS011;2376;53.544;10.226;2023-02-22T06:03:12;18.23;;;10.60;;
4724;SDS011;2376;53.544;10.226;2023-02-22T06:05:39;27.90;;;10.80;;
4724;SDS011;2376;53.544;10.226;2023-02-22T06:08:07;22.50;;;10.97;;
4724;SDS011;2376;53.544;10.226;2023-02-22T06:10:35;20.77;;;11.93;;
4724;SDS011;2376;53.544;10.226;2023-02-22T06:13:03;24.50;;;12.27;;
4724;SDS011;2376;53.544;10.226;2023-02-22T06:15:30;23.07;;;12.70;;
4724;SDS011;2376;53.544;10.226;2023-02-22T06:17:57;22.83;;;12.43;;
4724;SDS011;2376;53.544;10.226;2023-02-22T06:20:26;23.07;;;11.50;;
4724;SDS011;2376;53.544;10.226;2023-02-22T06:22:55;21.00;;;11.70;;
4724;SDS011;2376;53.544;10.226;2023-02-22T06:25:25;17.53;;;10.67;;
4724;SDS011;2376;53.544;10.226;2023-02-22T06:27:55;22.83;;;11.83;;
4724;SDS011;2376;53.544;10.226;2023-02-22T06:30:22;24.20;;;12.30;;
4724;SDS011;2376;53.544;10.226;2023-02-22T06:32:50;19.00;;;11.90;;
4724;SDS011;2376;53.544;10.226;2023-02-22T06:35:17;23.03;;;11.50;;
4724;SDS011;2376;53.544;10.226;2023-02-22T06:37:44;23.10;;;11.87;;
4724;SDS011;2376;53.544;10.226;2023-02-22T06:40:11;22.83;;;12.53;;
4724;SDS011;2376;53.544;10.226;2023-02-22T06:42:40;22.03;;;11.17;;
4724;SDS011;2376;53.544;10.226;2023-02-22T06:45:07;18.93;;;10.87;;
4724;SDS011;2376;53.544;10.226;2023-02-22T06:47:36;17.83;;;10.90;;
4724;SDS011;2376;53.544;10.226;2023-02-22T06:50:05;16.93;;;10.37;;
4724;SDS011;2376;53.544;10.226;2023-02-22T06:52:33;22.17;;;11.77;;
4724;SDS011;2376;53.544;10.226;2023-02-22T06:55:00;19.60;;;11.10;;
4724;SDS011;2376;53.544;10.226;2023-02-22T06:57:26;24.10;;;12.23;;
4724;SDS011;2376;53.544;10.226;2023-02-22T06:59:54;26.83;;;11.13;;
4724;SDS011;2376;53.544;10.226;2023-02-22T07:02:21;25.17;;;12.60;;
4724;SDS011;2376;53.544;10.226;2023-02-22T07:04:48;23.20;;;11.47;;
4724;SDS011;2376;53.544;10.226;2023-02-22T07:07:15;21.73;;;11.63;;
4724;SDS011;2376;53.544;10.226;2023-02-22T07:09:44;22.13;;;12.00;;
4724;SDS011;2376;53.544;10.226;2023-02-22T07:12:11;21.37;;;11.10;;
4724;SDS011;2376;53.544;10.226;2023-02-22T07:14:38;21.80;;;11.37;;
4724;SDS011;2376;53.544;10.226;2023-02-22T07:17:06;27.03;;;12.13;;
4724;SDS011;2376;53.544;10.226;2023-02-22T07:19:33;19.47;;;11.00;;
4724;SDS011;2376;53.544;10.226;2023-02-22T07:22:00;24.60;;;11.83;;
4724;SDS011;2376;53.544;10.226;2023-02-22T07:24:27;24.97;;;12.67;;
4724;SDS011;2376;53.544;10.226;2023-02-22T07:26:54;21.40;;;11.63;;
4724;SDS011;2376;53.544;10.226;2023-02-22T07:29:21;25.17;;;11.97;;
4724;SDS011;2376;53.544;10.226;2023-02-22T07:31:47;19.73;;;12.27;;
4724;SDS011;2376;53.544;10.226;2023-02-22T07:34:16;26.13;;;12.03;;
4724;SDS011;2376;53.544;10.226;2023-02-22T07:36:42;25.07;;;12.53;;
4724;SDS011;2376;53.544;10.226;2023-02-22T07:39:09;26.73;;;13.93;;
4724;SDS011;2376;53.544;10.226;2023-02-22T07:41:36;24.53;;;10.80;;
4724;SDS011;2376;53.544;10.226;2023-02-22T07:44:03;27.10;;;12.47;;
4724;SDS011;2376;53.544;10.226;2023-02-22T07:46:30;20.27;;;11.70;;
4724;SDS011;2376;53.544;10.226;2023-02-22T07:48:57;29.50;;;12.50;;
4724;SDS011;2376;53.544;10.226;2023-02-22T07:51:26;21.80;;;12.70;;
4724;SDS011;2376;53.544;10.226;2023-02-22T07:53:52;24.47;;;13.10;;
4724;SDS011;2376;53.544;10.226;2023-02-22T07:56:19;27.97;;;12.43;;
4724;SDS011;2376;53.544;10.226;2023-02-22T07:58:46;28.17;;;13.83;;
4724;SDS011;2376;53.544;10.226;2023-02-22T08:01:13;20.10;;;11.70;;
4724;SDS011;2376;53.544;10.226;2023-02-22T08:03:39;26.53;;;12.03;;
4724;SDS011;2376;53.544;10.226;2023-02-22T08:06:07;25.30;;;12.60;;
4724;SDS011;2376;53.544;10.226;2023-02-22T08:08:35;23.53;;;12.90;;
4724;SDS011;2376;53.544;10.226;2023-02-22T08:11:02;30.73;;;14.23;;
4724;SDS011;2376;53.544;10.226;2023-02-22T08:13:30;29.60;;;13.90;;
4724;SDS011;2376;53.544;10.226;2023-02-22T08:15:56;28.47;;;13.77;;
4724;SDS011;2376;53.544;10.226;2023-02-22T08:18:24;29.23;;;15.00;;
4724;SDS011;2376;53.544;10.226;2023-02-22T08:20:51;29.13;;;14.67;;
4724;SDS011;2376;53.544;10.226;2023-02-22T08:23:19;26.63;;;13.93;;
4724;SDS011;2376;53.544;10.226;2023-02-22T08:25:50;27.43;;;14.10;;
4724;SDS011;2376;53.544;10.226;2023-02-22T08:28:18;34.30;;;14.00;;
4724;SDS011;2376;53.544;10.226;2023-02-22T08:30:47;27.13;;;12.77;;
4724;SDS011;2376;53.544;10.226;2023-02-22T08:33:15;32.00;;;13.97;;
4724;SDS011;2376;53.544;10.226;2023-02-22T08:35:43;31.90;;;14.17;;
4724;SDS011;2376;53.544;10.226;2023-02-22T08:38:15;27.47;;;13.23;;
4724;SDS011;2376;53.544;10.226;2023-02-22T08:40:43;29.97;;;15.43;;
4724;SDS011;2376;53.544;10.226;2023-02-22T08:43:11;38.60;;;14.47;;
4724;SDS011;2376;53.544;10.226;2023-02-22T08:45:38;35.13;;;15.37;;
4724;SDS011;2376;53.544;10.226;2023-02-22T08:48:05;33.57;;;14.30;;
4724;SDS011;2376;53.544;10.226;2023-02-22T08:50:32;40.07;;;15.80;;
4724;SDS011;2376;53.544;10.226;2023-02-22T08:53:00;31.80;;;16.73;;
4724;SDS011;2376;53.544;10.226;2023-02-22T08:55:28;33.00;;;15.47;;
4724;SDS011;2376;53.544;10.226;2023-02-22T08:57:56;33.17;;;14.73;;
4724;SDS011;2376;53.544;10.226;2023-02-22T09:00:26;31.30;;;14.60;;
4724;SDS011;2376;53.544;10.226;2023-02-22T09:02:57;33.77;;;16.50;;
4724;SDS011;2376;53.544;10.226;2023-02-22T09:05:24;35.90;;;17.57;;
4724;SDS011;2376;53.544;10.226;2023-02-22T09:07:51;26.97;;;14.53;;
4724;SDS011;2376;53.544;10.226;2023-02-22T09:10:19;29.77;;;15.00;;
4724;SDS011;2376;53.544;10.226;2023-02-22T09:12:48;33.97;;;16.53;;
4724;SDS011;2376;53.544;10.226;2023-02-22T09:15:15;30.60;;;16.60;;
4724;SDS011;2376;53.544;10.226;2023-02-22T09:17:43;31.23;;;14.17;;
4724;SDS011;2376;53.544;10.226;2023-02-22T09:20:11;27.93;;;14.63;;
4724;SDS011;2376;53.544;10.226;2023-02-22T09:22:38;28.50;;;14.97;;
4724;SDS011;2376;53.544;10.226;2023-02-22T09:25:06;28.97;;;15.60;;
4724;SDS011;2376;53.544;10.226;2023-02-22T09:27:33;24.80;;;14.43;;
4724;SDS011;2376;53.544;10.226;2023-02-22T09:30:00;28.90;;;15.03;;
4724;SDS011;2376;53.544;10.226;2023-02-22T09:32:27;25.50;;;14.53;;
4724;SDS011;2376;53.544;10.226;2023-02-22T09:34:56;27.83;;;14.67;;
4724;SDS011;2376;53.544;10.226;2023-02-22T09:37:23;24.90;;;13.17;;
4724;SDS011;2376;53.544;10.226;2023-02-22T09:39:50;20.47;;;13.70;;
4724;SDS011;2376;53.544;10.226;2023-02-22T09:42:21;25.90;;;13.33;;
4724;SDS011;2376;53.544;10.226;2023-02-22T09:44:54;25.37;;;14.73;;
4724;SDS011;2376;53.544;10.226;2023-02-22T09:47:33;26.27;;;13.20;;
4724;SDS011;2376;53.544;10.226;2023-02-22T09:50:07;25.67;;;14.27;;
4724;SDS011;2376;53.544;10.226;2023-02-22T09:52:42;22.90;;;13.30;;
4724;SDS011;2376;53.544;10.226;2023-02-22T09:55:21;24.23;;;13.53;;
4724;SDS011;2376;53.544;10.226;2023-02-22T09:57:58;20.20;;;13.53;;
4724;SDS011;2376;53.544;10.226;2023-02-22T10:00:28;21.60;;;13.80;;
4724;SDS011;2376;53.544;10.226;2023-02-22T10:03:02;23.40;;;13.30;;
4724;SDS011;2376;53.544;10.226;2023-02-22T10:05:43;21.73;;;13.80;;
4724;SDS011;2376;53.544;10.226;2023-02-22T10:08:15;21.03;;;14.17;;
4724;SDS011;2376;53.544;10.226;2023-02-22T10:10:47;22.20;;;12.40;;
4724;SDS011;2376;53.544;10.226;2023-02-22T10:13:35;21.80;;;12.20;;
4724;SDS011;2376;53.544;10.226;2023-02-22T10:16:17;22.07;;;12.87;;
4724;SDS011;2376;53.544;10.226;2023-02-22T10:21:54;22.17;;;12.40;;
4724;SDS011;2376;53.544;10.226;2023-02-22T10:24:36;21.07;;;13.07;;
4724;SDS011;2376;53.544;10.226;2023-02-22T10:27:12;19.87;;;12.13;;
4724;SDS011;2376;53.544;10.226;2023-02-22T10:29:46;21.87;;;12.33;;
4724;SDS011;2376;53.544;10.226;2023-02-22T10:32:19;20.00;;;12.87;;
4724;SDS011;2376;53.544;10.226;2023-02-22T10:34:51;20.63;;;12.87;;
4724;SDS011;2376;53.544;10.226;2023-02-22T10:37:23;22.20;;;14.07;;
4724;SDS011;2376;53.544;10.226;2023-02-22T10:39:53;20.20;;;13.23;;
4724;SDS011;2376;53.544;10.226;2023-02-22T10:42:24;22.97;;;13.27;;
4724;SDS011;2376;53.544;10.226;2023-02-22T10:44:52;21.73;;;13.30;;
4724;SDS011;2376;53.544;10.226;2023-02-22T10:47:19;20.87;;;12.93;;
4724;SDS011;2376;53.544;10.226;2023-02-22T10:49:47;20.23;;;13.70;;
4724;SDS011;2376;53.544;10.226;2023-02-22T10:52:18;19.13;;;12.90;;
4724;SDS011;2376;53.544;10.226;2023-02-22T10:54:53;23.23;;;14.60;;
4724;SDS011;2376;53.544;10.226;2023-02-22T10:57:23;22.50;;;14.10;;
4724;SDS011;2376;53.544;10.226;2023-02-22T10:59:51;23.20;;;14.87;;
4724;SDS011;2376;53.544;10.226;2023-02-22T11:02:22;26.30;;;15.07;;
4724;SDS011;2376;53.544;10.226;2023-02-22T11:04:53;21.13;;;14.07;;
4724;SDS011;2376;53.544;10.226;2023-02-22T11:07:24;28.37;;;15.33;;
4724;SDS011;2376;53.544;10.226;2023-02-22T11:09:55;23.10;;;13.97;;
4724;SDS011;2376;53.544;10.226;2023-02-22T11:12:27;16.50;;;13.10;;
4724;SDS011;2376;53.544;10.226;2023-02-22T11:14:56;24.70;;;14.50;;
4724;SDS011;2376;53.544;10.226;2023-02-22T11:17:26;22.90;;;14.77;;
4724;SDS011;2376;53.544;10.226;2023-02-22T11:19:56;21.53;;;14.97;;
4724;SDS011;2376;53.544;10.226;2023-02-22T11:22:26;20.13;;;12.53;;
4724;SDS011;2376;53.544;10.226;2023-02-22T11:24:57;17.37;;;12.83;;
4724;SDS011;2376;53.544;10.226;2023-02-22T11:27:28;22.10;;;14.67;;
4724;SDS011;2376;53.544;10.226;2023-02-22T11:30:17;17.77;;;13.93;;
4724;SDS011;2376;53.544;10.226;2023-02-22T11:32:53;21.27;;;13.90;;
4724;SDS011;2376;53.544;10.226;2023-02-22T11:35:29;19.53;;;13.20;;
4724;SDS011;2376;53.544;10.226;2023-02-22T11:38:10;19.93;;;13.77;;
4724;SDS011;2376;53.544;10.226;2023-02-22T11:40:41;17.80;;;13.27;;
4724;SDS011;2376;53.544;10.226;2023-02-22T11:43:09;18.33;;;12.40;;
4724;SDS011;2376;53.544;10.226;2023-02-22T11:45:56;20.50;;;13.60;;
4724;SDS011;2376;53.544;10.226;2023-02-22T11:48:27;20.10;;;13.47;;
4724;SDS011;2376;53.544;10.226;2023-02-22T11:50:59;19.43;;;12.60;;
4724;SDS011;2376;53.544;10.226;2023-02-22T11:53:41;19.87;;;12.43;;
4724;SDS011;2376;53.544;10.226;2023-02-22T11:56:21;18.73;;;12.67;;
4724;SDS011;2376;53.544;10.226;2023-02-22T11:58:58;18.60;;;12.30;;
4724;SDS011;2376;53.544;10.226;2023-02-22T12:01:35;14.87;;;11.70;;
4724;SDS011;2376;53.544;10.226;2023-02-22T12:07:13;16.20;;;12.53;;
4724;SDS011;2376;53.544;10.226;2023-02-22T12:09:50;16.40;;;11.47;;
4724;SDS011;2376;53.544;10.226;2023-02-22T12:12:24;16.60;;;12.33;;
4724;SDS011;2376;53.544;10.226;2023-02-22T12:15:02;18.23;;;11.90;;
4724;SDS011;2376;53.544;10.226;2023-02-22T12:17:43;16.90;;;12.47;;
4724;SDS011;2376;53.544;10.226;2023-02-22T12:20:17;15.63;;;11.73;;
4724;SDS011;2376;53.544;10.226;2023-02-22T12:22:52;17.93;;;12.23;;
4724;SDS011;2376;53.544;10.226;2023-02-22T12:25:28;16.60;;;11.73;;
4724;SDS011;2376;53.544;10.226;2023-02-22T12:27:59;18.53;;;11.50;;
4724;SDS011;2376;53.544;10.226;2023-02-22T12:30:36;20.20;;;12.50;;
4724;SDS011;2376;53.544;10.226;2023-02-22T12:33:09;18.70;;;12.97;;
4724;SDS011;2376;53.544;10.226;2023-02-22T12:35:40;17.00;;;12.00;;
4724;SDS011;2376;53.544;10.226;2023-02-22T12:38:12;19.83;;;12.70;;
4724;SDS011;2376;53.544;10.226;2023-02-22T12:40:49;17.00;;;11.70;;
4724;SDS011;2376;53.544;10.226;2023-02-22T12:43:23;16.80;;;11.57;;
4724;SDS011;2376;53.544;10.226;2023-02-22T12:45:56;16.00;;;11.00;;
4724;SDS011;2376;53.544;10.226;2023-02-22T12:48:30;21.07;;;11.10;;
4724;SDS011;2376;53.544;10.226;2023-02-22T12:51:14;21.10;;;13.70;;
4724;SDS011;2376;53.544;10.226;2023-02-22T12:53:52;16.00;;;11.53;;
4724;SDS011;2376;53.544;10.226;2023-02-22T12:56:29;18.40;;;11.73;;
4724;SDS011;2376;53.544;10.226;2023-02-22T12:59:00;19.13;;;11.30;;
4724;SDS011;2376;53.544;10.226;2023-02-22T13:01:35;14.17;;;10.87;;
4724;SDS011;2376;53.544;10.226;2023-02-22T13:04:04;13.27;;;10.20;;
4724;SDS011;2376;53.544;10.226;2023-02-22T13:06:39;14.10;;;10.20;;
4724;SDS011;2376;53.544;10.226;2023-02-22T13:09:31;13.20;;;10.53;;
4724;SDS011;2376;53.544;10.226;2023-02-22T13:12:07;13.57;;;9.90;;
4724;SDS011;2376;53.544;10.226;2023-02-22T13:14:44;12.80;;;8.90;;
4724;SDS011;2376;53.544;10.226;2023-02-22T13:17:21;15.30;;;9.60;;
4724;SDS011;2376;53.544;10.226;2023-02-22T13:19:55;16.10;;;11.73;;
4724;SDS011;2376;53.544;10.226;2023-02-22T13:22:32;15.93;;;10.73;;
4724;SDS011;2376;53.544;10.226;2023-02-22T13:25:07;19.40;;;11.10;;
4724;SDS011;2376;53.544;10.226;2023-02-22T13:27:42;14.80;;;10.53;;
4724;SDS011;2376;53.544;10.226;2023-02-22T13:30:16;11.43;;;10.33;;
4724;SDS011;2376;53.544;10.226;2023-02-22T13:36:02;17.93;;;11.50;;
4724;SDS011;2376;53.544;10.226;2023-02-22T13:38:45;16.03;;;11.93;;
4724;SDS011;2376;53.544;10.226;2023-02-22T13:41:52;16.10;;;11.50;;
4724;SDS011;2376;53.544;10.226;2023-02-22T13:47:36;17.73;;;11.20;;
4724;SDS011;2376;53.544;10.226;2023-02-22T13:50:26;17.17;;;11.97;;
4724;SDS011;2376;53.544;10.226;2023-02-22T13:53:14;15.40;;;10.50;;
4724;SDS011;2376;53.544;10.226;2023-02-22T13:55:51;11.80;;;10.00;;
4724;SDS011;2376;53.544;10.226;2023-02-22T13:58:21;19.97;;;10.70;;
4724;SDS011;2376;53.544;10.226;2023-02-22T14:00:49;16.97;;;11.33;;
4724;SDS011;2376;53.544;10.226;2023-02-22T14:03:30;17.23;;;12.40;;
4724;SDS011;2376;53.544;10.226;2023-02-22T14:06:04;14.30;;;11.03;;
4724;SDS011;2376;53.544;10.226;2023-02-22T14:08:39;18.23;;;10.73;;
4724;SDS011;2376;53.544;10.226;2023-02-22T14:14:16;16.87;;;12.27;;
4724;SDS011;2376;53.544;10.226;2023-02-22T14:20:28;18.00;;;13.60;;
4724;SDS011;2376;53.544;10.226;2023-02-22T14:26:21;16.17;;;11.63;;
4724;SDS011;2376;53.544;10.226;2023-02-22T14:29:19;17.90;;;12.70;;
4724;SDS011;2376;53.544;10.226;2023-02-22T14:34:40;22.47;;;12.30;;
4724;SDS011;2376;53.544;10.226;2023-02-22T14:37:15;18.47;;;13.10;;
4724;SDS011;2376;53.544;10.226;2023-02-22T14:39:45;16.20;;;11.47;;
4724;SDS011;2376;53.544;10.226;2023-02-22T14:42:15;17.60;;;12.90;;
4724;SDS011;2376;53.544;10.226;2023-02-22T14:44:48;18.47;;;13.47;;
4724;SDS011;2376;53.544;10.226;2023-02-22T14:47:22;14.80;;;11.10;;
4724;SDS011;2376;53.544;10.226;2023-02-22T14:49:54;16.43;;;11.70;;
4724;SDS011;2376;53.544;10.226;2023-02-22T14:52:27;22.57;;;12.23;;
4724;SDS011;2376;53.544;10.226;2023-02-22T14:54:59;17.90;;;12.00;;
4724;SDS011;2376;53.544;10.226;2023-02-22T14:57:34;16.23;;;11.00;;
4724;SDS011;2376;53.544;10.226;2023-02-22T15:00:13;23.33;;;13.20;;
4724;SDS011;2376;53.544;10.226;2023-02-22T15:02:47;19.17;;;12.03;;
4724;SDS011;2376;53.544;10.226;2023-02-22T15:05:17;16.10;;;11.10;;
4724;SDS011;2376;53.544;10.226;2023-02-22T15:07:53;17.60;;;11.20;;
4724;SDS011;2376;53.544;10.226;2023-02-22T15:10:24;14.77;;;10.50;;
4724;SDS011;2376;53.544;10.226;2023-02-22T15:12:54;16.53;;;10.37;;
4724;SDS011;2376;53.544;10.226;2023-02-22T15:15:36;23.20;;;12.43;;
4724;SDS011;2376;53.544;10.226;2023-02-22T15:18:11;16.33;;;10.03;;
4724;SDS011;2376;53.544;10.226;2023-02-22T15:20:52;15.30;;;10.63;;
4724;SDS011;2376;53.544;10.226;2023-02-22T15:23:26;14.10;;;10.40;;
4724;SDS011;2376;53.544;10.226;2023-02-22T15:25:59;17.93;;;11.13;;
4724;SDS011;2376;53.544;10.226;2023-02-22T15:28:27;14.07;;;11.60;;
4724;SDS011;2376;53.544;10.226;2023-02-22T15:31:15;44.20;;;11.70;;